Webcam Richtung Westen

Webcam27

Webcam Richtung Norden

Webcam36

Webcam Richtung Osten

Webcam09

Wetter(Würzburg):
062330Z AUTO 17003G03KT 23KM ////// 10/02 Q1027
		
Tue 7.04.2020, 23:30 UTC

Sichtweite bis zu 23 km
Wind aus 170° mit 03kt, in Böen bis zu 03kt

Temperatur: 10 °C
Taupunkt: 2 °C
QNH: 1027 hPa
                         Heute        Morgen
                         07.04        08.04
--------------------------------------------
Beginn der Dämmerung     04:11        04:09
Sonnenaufgang            04:44        04:42
Sonnenuntergang          18:01        18:02
Ende der Dämmerung       18:34        18:35

Alle Zeiten in UTC